createdAt,value
2023-03-02T00:00:14.712Z,34.17
2023-03-02T00:03:01.035Z,34.63
2023-03-02T00:05:49.755Z,33.95
2023-03-02T00:08:36.079Z,34.38
2023-03-02T00:11:21.709Z,33.25
2023-03-02T00:14:07.516Z,33.70
2023-03-02T00:16:52.843Z,33.50
2023-03-02T00:19:39.028Z,34.33
2023-03-02T00:22:24.687Z,32.35
2023-03-02T00:25:11.220Z,33.92
2023-03-02T00:27:56.733Z,33.30
2023-03-02T00:30:42.516Z,33.20
2023-03-02T00:33:28.146Z,31.23
2023-03-02T00:36:18.461Z,32.80
2023-03-02T00:39:04.694Z,31.92
2023-03-02T00:41:50.845Z,32.90
2023-03-02T00:44:38.292Z,32.08
2023-03-02T00:47:23.883Z,32.40
2023-03-02T00:50:10.233Z,31.52
2023-03-02T00:52:55.749Z,31.10
2023-03-02T00:55:40.994Z,31.60
2023-03-02T00:58:28.255Z,31.40
2023-03-02T01:01:15.956Z,31.05
2023-03-02T01:04:06.030Z,30.75
2023-03-02T01:06:51.184Z,30.77
2023-03-02T01:09:37.925Z,29.88
2023-03-02T01:12:23.397Z,29.85
2023-03-02T01:15:11.196Z,30.02
2023-03-02T01:17:57.053Z,31.08
2023-03-02T01:20:42.822Z,28.88
2023-03-02T01:23:28.877Z,28.85
2023-03-02T01:26:14.296Z,29.70
2023-03-02T01:29:00.106Z,28.75
2023-03-02T01:31:45.602Z,29.27
2023-03-02T01:34:31.040Z,29.63
2023-03-02T01:37:16.850Z,26.58
2023-03-02T01:40:05.747Z,26.75
2023-03-02T01:42:56.842Z,25.35
2023-03-02T01:46:19.526Z,26.30
2023-03-02T01:49:12.733Z,25.58
2023-03-02T01:52:09.499Z,26.80
2023-03-02T01:54:58.751Z,26.83
2023-03-02T01:57:47.865Z,27.27
2023-03-02T02:00:39.135Z,26.52
2023-03-02T02:03:28.750Z,28.52
2023-03-02T02:06:44.381Z,26.63
2023-03-02T02:09:39.015Z,28.15
2023-03-02T02:12:24.805Z,27.90
2023-03-02T02:15:11.405Z,27.73
2023-03-02T02:17:58.402Z,29.27
2023-03-02T02:20:45.342Z,29.55
2023-03-02T02:23:37.452Z,29.10
2023-03-02T02:26:47.420Z,28.63
2023-03-02T02:29:45.534Z,28.95
2023-03-02T02:32:36.893Z,28.25
2023-03-02T02:35:27.412Z,27.85
2023-03-02T02:38:15.830Z,27.50
2023-03-02T02:41:04.346Z,27.23
2023-03-02T02:43:53.198Z,26.13
2023-03-02T02:46:38.688Z,24.30
2023-03-02T02:49:32.156Z,24.80
2023-03-02T02:52:20.234Z,23.80
2023-03-02T02:55:06.483Z,23.90
2023-03-02T02:57:55.508Z,24.48
2023-03-02T03:00:42.130Z,25.23
2023-03-02T03:03:32.351Z,23.75
2023-03-02T03:06:30.671Z,22.23
2023-03-02T03:09:16.409Z,24.02
2023-03-02T03:12:15.435Z,23.77
2023-03-02T03:15:02.769Z,21.40
2023-03-02T03:17:57.422Z,23.25
2023-03-02T03:20:45.548Z,22.02
2023-03-02T03:23:31.140Z,21.52
2023-03-02T03:26:16.999Z,21.70
2023-03-02T03:29:03.882Z,21.90
2023-03-02T03:31:50.676Z,22.05
2023-03-02T03:34:40.535Z,22.05
2023-03-02T03:37:31.014Z,22.38
2023-03-02T03:40:16.709Z,21.10
2023-03-02T03:43:04.537Z,22.02
2023-03-02T03:45:51.962Z,21.92
2023-03-02T03:48:38.262Z,23.15
2023-03-02T03:51:24.507Z,21.55
2023-03-02T03:54:11.112Z,21.90
2023-03-02T03:57:00.386Z,21.35
2023-03-02T03:59:45.858Z,21.92
2023-03-02T04:02:31.973Z,21.40
2023-03-02T04:05:18.033Z,20.40
2023-03-02T04:08:04.478Z,22.30
2023-03-02T04:10:50.499Z,22.35
2023-03-02T04:13:36.152Z,21.55
2023-03-02T04:16:21.694Z,21.88
2023-03-02T04:19:10.814Z,23.15
2023-03-02T04:22:01.759Z,22.50
2023-03-02T04:24:49.812Z,21.13
2023-03-02T04:27:35.874Z,21.10
2023-03-02T04:30:24.703Z,21.90
2023-03-02T04:33:11.344Z,20.65
2023-03-02T04:35:56.872Z,21.98
2023-03-02T04:38:43.007Z,20.42
2023-03-02T04:41:29.613Z,22.10
2023-03-02T04:44:16.206Z,20.98
2023-03-02T04:47:01.757Z,21.42
2023-03-02T04:49:47.095Z,21.67
2023-03-02T04:52:32.702Z,21.65
2023-03-02T04:55:20.659Z,21.80
2023-03-02T04:58:06.162Z,22.13
2023-03-02T05:00:51.542Z,20.95
2023-03-02T05:03:37.324Z,21.02
2023-03-02T05:06:25.116Z,22.75
2023-03-02T05:09:10.899Z,21.25
2023-03-02T05:11:57.714Z,21.52
2023-03-02T05:14:45.434Z,21.02
2023-03-02T05:17:30.948Z,20.83
2023-03-02T05:20:17.478Z,21.65
2023-03-02T05:23:07.343Z,22.30
2023-03-02T05:25:55.101Z,21.95
2023-03-02T05:28:42.025Z,22.80
2023-03-02T05:31:37.789Z,21.98
2023-03-02T05:34:23.424Z,22.35
2023-03-02T05:37:08.979Z,22.63
2023-03-02T05:39:54.453Z,22.88
2023-03-02T05:42:41.234Z,22.23
2023-03-02T05:45:33.096Z,22.85
2023-03-02T05:48:18.528Z,22.95
2023-03-02T05:51:04.674Z,22.23
2023-03-02T05:53:50.210Z,23.52
2023-03-02T05:56:35.979Z,23.67
2023-03-02T05:59:21.683Z,23.05
2023-03-02T06:02:07.444Z,24.13
2023-03-02T06:04:53.064Z,22.80
2023-03-02T06:07:38.647Z,23.85
2023-03-02T06:10:24.282Z,23.27
2023-03-02T06:13:09.642Z,22.80
2023-03-02T06:15:55.147Z,23.10
2023-03-02T06:18:41.634Z,23.67
2023-03-02T06:21:27.342Z,22.48
2023-03-02T06:24:12.901Z,22.13
2023-03-02T06:26:59.822Z,22.48
2023-03-02T06:29:45.416Z,22.20
2023-03-02T06:32:34.344Z,21.92
2023-03-02T06:35:19.962Z,22.65
2023-03-02T06:38:05.412Z,24.10
2023-03-02T06:40:50.573Z,22.95
2023-03-02T06:43:35.975Z,23.23
2023-03-02T06:46:21.337Z,23.63
2023-03-02T06:49:07.129Z,22.83
2023-03-02T06:51:52.405Z,23.85
2023-03-02T06:54:37.861Z,22.52
2023-03-02T06:57:23.310Z,23.13
2023-03-02T07:00:16.759Z,24.27
2023-03-02T07:03:02.163Z,22.27
2023-03-02T07:05:48.919Z,23.35
2023-03-02T07:08:34.453Z,22.75
2023-03-02T07:11:19.620Z,22.65
2023-03-02T07:14:05.088Z,22.75
2023-03-02T07:16:50.584Z,22.02
2023-03-02T07:19:40.650Z,21.65
2023-03-02T07:22:26.404Z,22.60
2023-03-02T07:25:12.296Z,21.33
2023-03-02T07:27:57.379Z,22.42
2023-03-02T07:30:42.899Z,22.20
2023-03-02T07:33:28.319Z,21.63
2023-03-02T07:36:13.728Z,20.38
2023-03-02T07:38:59.148Z,20.92
2023-03-02T07:41:44.850Z,21.17
2023-03-02T07:44:31.916Z,21.30
2023-03-02T07:47:17.407Z,20.52
2023-03-02T07:50:03.408Z,20.83
2023-03-02T07:52:48.673Z,20.88
2023-03-02T07:55:34.065Z,20.13
2023-03-02T07:58:20.259Z,21.05
2023-03-02T08:01:07.391Z,20.35
2023-03-02T08:03:53.237Z,18.73
2023-03-02T08:06:38.286Z,19.30
2023-03-02T08:09:23.921Z,18.70
2023-03-02T08:12:09.285Z,17.98
2023-03-02T08:14:56.289Z,19.10
2023-03-02T08:17:41.662Z,17.45
2023-03-02T08:20:27.030Z,17.42
2023-03-02T08:23:12.543Z,17.85
2023-03-02T08:25:57.780Z,17.95
2023-03-02T08:28:43.625Z,17.25
2023-03-02T08:31:28.957Z,18.48
2023-03-02T08:34:14.605Z,18.80
2023-03-02T08:36:59.931Z,18.65
2023-03-02T08:39:45.562Z,18.02
2023-03-02T08:42:30.948Z,18.77
2023-03-02T08:45:19.684Z,19.42
2023-03-02T08:48:05.407Z,18.52
2023-03-02T08:51:07.155Z,18.08
2023-03-02T08:53:55.514Z,18.58
2023-03-02T08:56:41.632Z,19.02
2023-03-02T08:59:27.445Z,19.45
2023-03-02T09:02:12.780Z,18.40
2023-03-02T09:04:58.738Z,17.08
2023-03-02T09:07:44.391Z,17.75
2023-03-02T09:10:29.526Z,18.40
2023-03-02T09:13:15.013Z,19.15
2023-03-02T09:16:01.343Z,19.35
2023-03-02T09:18:48.810Z,19.77
2023-03-02T09:21:35.182Z,19.77
2023-03-02T09:24:20.680Z,18.77
2023-03-02T09:27:06.431Z,17.23
2023-03-02T09:29:51.981Z,17.67
2023-03-02T09:32:37.830Z,18.73
2023-03-02T09:35:23.806Z,19.45
2023-03-02T09:38:12.860Z,19.55
2023-03-02T09:41:20.922Z,19.80
2023-03-02T09:44:13.252Z,20.13
2023-03-02T09:47:36.355Z,19.77
2023-03-02T09:53:47.300Z,19.90
2023-03-02T09:56:37.322Z,20.17
2023-03-02T09:59:45.619Z,20.17
2023-03-02T10:02:51.956Z,19.33
2023-03-02T10:05:40.926Z,18.67
2023-03-02T10:08:32.970Z,21.05
2023-03-02T10:11:25.001Z,20.95
2023-03-02T10:14:25.980Z,20.02
2023-03-02T10:17:17.111Z,20.02
2023-03-02T10:20:37.041Z,20.48
2023-03-02T10:23:49.332Z,21.95
2023-03-02T10:26:57.672Z,20.02
2023-03-02T10:29:55.369Z,20.08
2023-03-02T10:32:47.850Z,21.73
2023-03-02T10:35:34.451Z,21.70
2023-03-02T10:38:23.408Z,19.65
2023-03-02T10:41:15.775Z,20.33
2023-03-02T10:44:13.905Z,19.85
2023-03-02T10:46:59.338Z,18.90
2023-03-02T10:49:48.471Z,19.13
2023-03-02T10:52:34.474Z,18.13
2023-03-02T10:55:19.894Z,18.63
2023-03-02T10:58:21.063Z,18.55
2023-03-02T11:01:18.281Z,18.02
2023-03-02T11:04:03.711Z,16.75
2023-03-02T11:06:50.684Z,17.00
2023-03-02T11:09:36.322Z,17.50
2023-03-02T11:12:21.662Z,17.85
2023-03-02T11:15:28.397Z,18.85
2023-03-02T11:18:31.102Z,19.80
2023-03-02T11:22:06.219Z,19.95
2023-03-02T11:24:56.384Z,19.42
2023-03-02T11:27:44.793Z,19.25
2023-03-02T11:30:37.218Z,19.65
2023-03-02T11:33:30.134Z,19.75
2023-03-02T11:36:22.183Z,18.83
2023-03-02T11:39:15.572Z,18.83
2023-03-02T11:42:00.766Z,18.65
2023-03-02T11:44:48.467Z,20.00
2023-03-02T11:47:35.680Z,19.85
2023-03-02T11:50:21.511Z,19.60
2023-03-02T11:53:15.663Z,19.83
2023-03-02T11:56:01.416Z,19.48
2023-03-02T11:58:52.855Z,19.85
2023-03-02T12:01:40.278Z,21.50
2023-03-02T12:04:26.418Z,20.50
2023-03-02T12:07:22.931Z,17.92
2023-03-02T12:10:28.357Z,18.15
2023-03-02T12:13:25.483Z,17.80
2023-03-02T12:16:36.844Z,18.50
2023-03-02T12:19:38.453Z,19.20
2023-03-02T12:22:29.642Z,18.75
2023-03-02T12:25:21.084Z,20.23
2023-03-02T12:28:24.663Z,19.65
2023-03-02T12:31:13.120Z,19.95
2023-03-02T12:34:01.638Z,19.25
2023-03-02T12:36:47.949Z,19.13
2023-03-02T12:39:54.967Z,19.88
2023-03-02T12:43:05.019Z,19.90
2023-03-02T12:46:26.942Z,20.30
2023-03-02T12:49:27.410Z,19.10
2023-03-02T12:52:28.478Z,20.25
2023-03-02T12:55:19.890Z,20.50
2023-03-02T12:58:20.074Z,19.92
2023-03-02T13:01:06.488Z,20.70
2023-03-02T13:03:52.774Z,20.38
2023-03-02T13:06:39.414Z,19.52
2023-03-02T13:09:25.119Z,20.45
2023-03-02T13:12:14.168Z,19.45
2023-03-02T13:14:59.664Z,19.38
2023-03-02T13:17:52.475Z,21.08
2023-03-02T13:20:38.902Z,18.25
2023-03-02T13:23:26.201Z,18.90
2023-03-02T13:26:34.233Z,20.02
2023-03-02T13:29:20.636Z,19.80
2023-03-02T13:32:25.634Z,19.08
2023-03-02T13:35:26.852Z,19.65
2023-03-02T13:38:19.154Z,19.17
2023-03-02T13:41:05.432Z,18.75
2023-03-02T13:43:51.135Z,19.50
2023-03-02T13:46:38.380Z,18.92
2023-03-02T13:49:30.016Z,17.67
2023-03-02T13:52:29.874Z,18.45
2023-03-02T13:55:17.212Z,18.45
2023-03-02T13:58:02.912Z,18.45
2023-03-02T14:00:50.366Z,18.48
2023-03-02T14:03:36.058Z,17.45
2023-03-02T14:06:21.724Z,17.63
2023-03-02T14:09:07.320Z,18.40
2023-03-02T14:11:55.405Z,17.30
2023-03-02T14:14:41.051Z,18.25
2023-03-02T14:17:26.796Z,19.48
2023-03-02T14:20:14.788Z,18.73
2023-03-02T14:23:06.339Z,18.75
2023-03-02T14:25:53.867Z,19.65
